sensor_id;sensor_type;location;lat;lon;timestamp;temperature;humidity
25280;DHT22;13225;47.804;12.116;2023-02-22T00:00:17;6.00;99.90
25280;DHT22;13225;47.804;12.116;2023-02-22T00:02:45;5.90;99.90
25280;DHT22;13225;47.804;12.116;2023-02-22T00:05:10;5.70;99.90
25280;DHT22;13225;47.804;12.116;2023-02-22T00:07:41;5.50;99.90
25280;DHT22;13225;47.804;12.116;2023-02-22T00:10:06;5.20;99.90
25280;DHT22;13225;47.804;12.116;2023-02-22T00:12:38;4.90;99.90
25280;DHT22;13225;47.804;12.116;2023-02-22T00:15:04;4.60;99.90
25280;DHT22;13225;47.804;12.116;2023-02-22T00:17:30;4.30;99.90
25280;DHT22;13225;47.804;12.116;2023-02-22T00:19:55;4.10;99.90
25280;DHT22;13225;47.804;12.116;2023-02-22T00:22:21;4.00;99.90
25280;DHT22;13225;47.804;12.116;2023-02-22T00:24:46;3.80;99.90
25280;DHT22;13225;47.804;12.116;2023-02-22T00:27:12;3.60;99.90
25280;DHT22;13225;47.804;12.116;2023-02-22T00:29:43;3.60;99.90
25280;DHT22;13225;47.804;12.116;2023-02-22T00:32:09;3.50;99.90
25280;DHT22;13225;47.804;12.116;2023-02-22T00:34:35;3.40;99.90
25280;DHT22;13225;47.804;12.116;2023-02-22T00:37:00;3.40;99.90
25280;DHT22;13225;47.804;12.116;2023-02-22T00:39:31;3.30;99.90
25280;DHT22;13225;47.804;12.116;2023-02-22T00:41:56;3.20;99.90
25280;DHT22;13225;47.804;12.116;2023-02-22T00:44:22;3.00;99.90
25280;DHT22;13225;47.804;12.116;2023-02-22T00:46:48;3.00;99.90
25280;DHT22;13225;47.804;12.116;2023-02-22T00:49:15;3.00;99.90
25280;DHT22;13225;47.804;12.116;2023-02-22T00:51:41;3.00;99.90
25280;DHT22;13225;47.804;12.116;2023-02-22T00:54:07;3.00;99.90
25280;DHT22;13225;47.804;12.116;2023-02-22T00:56:33;2.90;99.90
25280;DHT22;13225;47.804;12.116;2023-02-22T00:58:59;2.90;99.90
25280;DHT22;13225;47.804;12.116;2023-02-22T01:01:26;2.90;99.90
25280;DHT22;13225;47.804;12.116;2023-02-22T01:03:52;2.90;99.90
25280;DHT22;13225;47.804;12.116;2023-02-22T01:06:18;2.90;99.90
25280;DHT22;13225;47.804;12.116;2023-02-22T01:08:44;2.90;99.90
25280;DHT22;13225;47.804;12.116;2023-02-22T01:11:11;2.70;99.90
25280;DHT22;13225;47.804;12.116;2023-02-22T01:13:37;2.70;99.90
25280;DHT22;13225;47.804;12.116;2023-02-22T01:16:03;2.60;99.90
25280;DHT22;13225;47.804;12.116;2023-02-22T01:18:29;2.50;99.90
25280;DHT22;13225;47.804;12.116;2023-02-22T01:20:54;2.50;99.90
25280;DHT22;13225;47.804;12.116;2023-02-22T01:23:20;2.50;99.90
25280;DHT22;13225;47.804;12.116;2023-02-22T01:25:46;2.40;99.90
25280;DHT22;13225;47.804;12.116;2023-02-22T01:28:11;2.40;99.90
25280;DHT22;13225;47.804;12.116;2023-02-22T01:30:38;2.40;99.90
25280;DHT22;13225;47.804;12.116;2023-02-22T01:33:05;2.30;99.90
25280;DHT22;13225;47.804;12.116;2023-02-22T01:35:34;2.30;99.90
25280;DHT22;13225;47.804;12.116;2023-02-22T01:38:00;2.30;99.90
25280;DHT22;13225;47.804;12.116;2023-02-22T01:40:29;2.30;99.90
25280;DHT22;13225;47.804;12.116;2023-02-22T01:42:57;2.30;99.90
25280;DHT22;13225;47.804;12.116;2023-02-22T01:48:05;2.20;99.90
25280;DHT22;13225;47.804;12.116;2023-02-22T01:50:36;2.20;99.90
25280;DHT22;13225;47.804;12.116;2023-02-22T01:53:04;2.20;99.90
25280;DHT22;13225;47.804;12.116;2023-02-22T01:55:33;2.20;99.90
25280;DHT22;13225;47.804;12.116;2023-02-22T01:58:00;2.20;99.90
25280;DHT22;13225;47.804;12.116;2023-02-22T02:00:26;2.20;99.90
25280;DHT22;13225;47.804;12.116;2023-02-22T02:02:59;2.30;99.90
25280;DHT22;13225;47.804;12.116;2023-02-22T02:05:28;2.30;99.90
25280;DHT22;13225;47.804;12.116;2023-02-22T02:07:56;2.20;99.90
25280;DHT22;13225;47.804;12.116;2023-02-22T02:10:22;2.20;99.90
25280;DHT22;13225;47.804;12.116;2023-02-22T02:12:50;2.10;99.90
25280;DHT22;13225;47.804;12.116;2023-02-22T02:15:32;2.10;99.90
25280;DHT22;13225;47.804;12.116;2023-02-22T02:18:00;2.20;99.90
25280;DHT22;13225;47.804;12.116;2023-02-22T02:34:15;2.20;99.90
25280;DHT22;13225;47.804;12.116;2023-02-22T02:37:27;2.10;99.90
25280;DHT22;13225;47.804;12.116;2023-02-22T02:40:17;2.00;99.90
25280;DHT22;13225;47.804;12.116;2023-02-22T02:43:06;1.90;99.90
25280;DHT22;13225;47.804;12.116;2023-02-22T02:45:46;1.80;99.90
25280;DHT22;13225;47.804;12.116;2023-02-22T02:48:14;1.70;99.90
25280;DHT22;13225;47.804;12.116;2023-02-22T02:50:47;1.80;99.90
25280;DHT22;13225;47.804;12.116;2023-02-22T02:53:20;1.80;99.90
25280;DHT22;13225;47.804;12.116;2023-02-22T02:55:47;1.80;99.90
25280;DHT22;13225;47.804;12.116;2023-02-22T02:58:21;1.80;99.90
25280;DHT22;13225;47.804;12.116;2023-02-22T03:00:50;1.80;99.90
25280;DHT22;13225;47.804;12.116;2023-02-22T03:06:24;1.80;99.90
25280;DHT22;13225;47.804;12.116;2023-02-22T03:11:39;1.80;99.90
25280;DHT22;13225;47.804;12.116;2023-02-22T03:14:56;1.80;99.90
25280;DHT22;13225;47.804;12.116;2023-02-22T03:17:50;1.80;99.90
25280;DHT22;13225;47.804;12.116;2023-02-22T03:23:23;1.70;99.90
25280;DHT22;13225;47.804;12.116;2023-02-22T03:26:05;1.70;99.90
25280;DHT22;13225;47.804;12.116;2023-02-22T03:28:32;1.60;99.90
25280;DHT22;13225;47.804;12.116;2023-02-22T03:31:13;1.70;99.90
25280;DHT22;13225;47.804;12.116;2023-02-22T03:33:44;1.70;99.90
25280;DHT22;13225;47.804;12.116;2023-02-22T03:36:19;1.60;99.90
25280;DHT22;13225;47.804;12.116;2023-02-22T03:38:47;1.50;99.90
25280;DHT22;13225;47.804;12.116;2023-02-22T03:41:16;1.50;99.90
25280;DHT22;13225;47.804;12.116;2023-02-22T03:43:46;1.50;99.90
25280;DHT22;13225;47.804;12.116;2023-02-22T03:46:13;1.40;99.90
25280;DHT22;13225;47.804;12.116;2023-02-22T03:51:13;1.50;99.90
25280;DHT22;13225;47.804;12.116;2023-02-22T03:53:42;1.50;99.90
25280;DHT22;13225;47.804;12.116;2023-02-22T03:56:12;1.50;99.90
25280;DHT22;13225;47.804;12.116;2023-02-22T03:58:40;1.50;99.90
25280;DHT22;13225;47.804;12.116;2023-02-22T04:01:09;1.50;99.90
25280;DHT22;13225;47.804;12.116;2023-02-22T04:03:35;1.60;99.90
25280;DHT22;13225;47.804;12.116;2023-02-22T04:06:00;1.60;99.90
25280;DHT22;13225;47.804;12.116;2023-02-22T04:08:26;1.60;99.90
25280;DHT22;13225;47.804;12.116;2023-02-22T04:10:51;1.60;99.90
25280;DHT22;13225;47.804;12.116;2023-02-22T04:13:17;1.60;99.90
25280;DHT22;13225;47.804;12.116;2023-02-22T04:15:43;1.50;99.90
25280;DHT22;13225;47.804;12.116;2023-02-22T04:18:09;1.60;99.90
25280;DHT22;13225;47.804;12.116;2023-02-22T04:20:34;1.50;99.90
25280;DHT22;13225;47.804;12.116;2023-02-22T04:23:00;1.50;99.90
25280;DHT22;13225;47.804;12.116;2023-02-22T04:25:25;1.50;99.90
25280;DHT22;13225;47.804;12.116;2023-02-22T04:27:51;1.50;99.90
25280;DHT22;13225;47.804;12.116;2023-02-22T04:30:18;1.50;99.90
25280;DHT22;13225;47.804;12.116;2023-02-22T04:32:45;1.40;99.90
25280;DHT22;13225;47.804;12.116;2023-02-22T04:35:10;1.50;99.90
25280;DHT22;13225;47.804;12.116;2023-02-22T04:37:36;1.50;99.90
25280;DHT22;13225;47.804;12.116;2023-02-22T04:40:02;1.60;99.90
25280;DHT22;13225;47.804;12.116;2023-02-22T04:42:32;1.70;99.90
25280;DHT22;13225;47.804;12.116;2023-02-22T04:44:58;1.80;99.90
25280;DHT22;13225;47.804;12.116;2023-02-22T04:47:23;1.80;99.90
25280;DHT22;13225;47.804;12.116;2023-02-22T04:49:49;1.80;99.90
25280;DHT22;13225;47.804;12.116;2023-02-22T04:52:15;1.80;99.90
25280;DHT22;13225;47.804;12.116;2023-02-22T04:54:41;1.90;99.90
25280;DHT22;13225;47.804;12.116;2023-02-22T04:57:07;2.10;99.90
25280;DHT22;13225;47.804;12.116;2023-02-22T04:59:32;2.30;99.90
25280;DHT22;13225;47.804;12.116;2023-02-22T05:01:58;2.50;99.90
25280;DHT22;13225;47.804;12.116;2023-02-22T05:04:25;2.50;99.90
25280;DHT22;13225;47.804;12.116;2023-02-22T05:06:50;2.60;99.90
25280;DHT22;13225;47.804;12.116;2023-02-22T05:09:16;2.80;99.90
25280;DHT22;13225;47.804;12.116;2023-02-22T05:11:42;2.90;99.90
25280;DHT22;13225;47.804;12.116;2023-02-22T05:14:07;3.00;99.90
25280;DHT22;13225;47.804;12.116;2023-02-22T05:16:33;3.10;99.90
25280;DHT22;13225;47.804;12.116;2023-02-22T05:18:58;3.20;99.90
25280;DHT22;13225;47.804;12.116;2023-02-22T05:21:24;3.20;99.90
25280;DHT22;13225;47.804;12.116;2023-02-22T05:23:50;3.20;99.90
25280;DHT22;13225;47.804;12.116;2023-02-22T05:26:15;3.30;99.90
25280;DHT22;13225;47.804;12.116;2023-02-22T05:28:41;3.50;99.90
25280;DHT22;13225;47.804;12.116;2023-02-22T05:31:07;3.50;99.90
25280;DHT22;13225;47.804;12.116;2023-02-22T05:33:33;3.50;99.90
25280;DHT22;13225;47.804;12.116;2023-02-22T05:35:58;3.30;99.90
25280;DHT22;13225;47.804;12.116;2023-02-22T05:38:24;3.10;99.90
25280;DHT22;13225;47.804;12.116;2023-02-22T05:40:53;3.00;99.90
25280;DHT22;13225;47.804;12.116;2023-02-22T05:43:19;2.90;99.90
25280;DHT22;13225;47.804;12.116;2023-02-22T05:45:44;2.90;99.90
25280;DHT22;13225;47.804;12.116;2023-02-22T05:48:10;2.80;99.90
25280;DHT22;13225;47.804;12.116;2023-02-22T05:50:37;2.80;99.90
25280;DHT22;13225;47.804;12.116;2023-02-22T05:53:02;2.80;99.90
25280;DHT22;13225;47.804;12.116;2023-02-22T05:55:29;2.70;99.90
25280;DHT22;13225;47.804;12.116;2023-02-22T05:57:55;2.70;99.90
25280;DHT22;13225;47.804;12.116;2023-02-22T06:00:24;2.90;99.90
25280;DHT22;13225;47.804;12.116;2023-02-22T06:02:58;2.90;99.90
25280;DHT22;13225;47.804;12.116;2023-02-22T06:05:26;2.90;99.90
25280;DHT22;13225;47.804;12.116;2023-02-22T06:07:52;2.80;99.90
25280;DHT22;13225;47.804;12.116;2023-02-22T06:10:18;2.70;99.90
25280;DHT22;13225;47.804;12.116;2023-02-22T06:12:44;2.70;99.90
25280;DHT22;13225;47.804;12.116;2023-02-22T06:15:10;2.60;99.90
25280;DHT22;13225;47.804;12.116;2023-02-22T06:17:36;2.50;99.90
25280;DHT22;13225;47.804;12.116;2023-02-22T06:20:02;2.60;99.90
25280;DHT22;13225;47.804;12.116;2023-02-22T06:22:28;2.50;99.90
25280;DHT22;13225;47.804;12.116;2023-02-22T06:24:53;2.60;99.90
25280;DHT22;13225;47.804;12.116;2023-02-22T06:27:19;2.60;99.90
25280;DHT22;13225;47.804;12.116;2023-02-22T06:29:45;2.70;99.90
25280;DHT22;13225;47.804;12.116;2023-02-22T06:32:12;2.90;99.90
25280;DHT22;13225;47.804;12.116;2023-02-22T06:34:37;2.90;99.90
25280;DHT22;13225;47.804;12.116;2023-02-22T06:37:04;3.00;99.90
25280;DHT22;13225;47.804;12.116;2023-02-22T06:39:29;3.00;99.90
25280;DHT22;13225;47.804;12.116;2023-02-22T06:41:55;3.00;99.90
25280;DHT22;13225;47.804;12.116;2023-02-22T06:44:22;3.00;99.90
25280;DHT22;13225;47.804;12.116;2023-02-22T06:46:48;2.90;99.90
25280;DHT22;13225;47.804;12.116;2023-02-22T06:49:18;2.90;99.90
25280;DHT22;13225;47.804;12.116;2023-02-22T06:51:44;3.10;99.90
25280;DHT22;13225;47.804;12.116;2023-02-22T06:54:10;3.40;99.90
25280;DHT22;13225;47.804;12.116;2023-02-22T06:56:36;3.60;99.90
25280;DHT22;13225;47.804;12.116;2023-02-22T06:59:01;3.70;99.90
25280;DHT22;13225;47.804;12.116;2023-02-22T07:01:27;3.70;99.90
25280;DHT22;13225;47.804;12.116;2023-02-22T07:03:53;3.70;99.90
25280;DHT22;13225;47.804;12.116;2023-02-22T07:06:18;3.70;99.90
25280;DHT22;13225;47.804;12.116;2023-02-22T07:08:44;3.60;99.90
25280;DHT22;13225;47.804;12.116;2023-02-22T07:11:10;3.60;99.90
25280;DHT22;13225;47.804;12.116;2023-02-22T07:13:35;3.40;99.90
25280;DHT22;13225;47.804;12.116;2023-02-22T07:16:01;3.60;99.90
25280;DHT22;13225;47.804;12.116;2023-02-22T07:18:27;3.70;99.90
25280;DHT22;13225;47.804;12.116;2023-02-22T07:20:52;3.80;99.90
25280;DHT22;13225;47.804;12.116;2023-02-22T07:23:19;4.10;99.90
25280;DHT22;13225;47.804;12.116;2023-02-22T07:25:45;4.20;99.90
25280;DHT22;13225;47.804;12.116;2023-02-22T07:28:11;4.40;99.90
25280;DHT22;13225;47.804;12.116;2023-02-22T07:30:36;4.70;99.90
25280;DHT22;13225;47.804;12.116;2023-02-22T07:33:10;4.80;99.90
25280;DHT22;13225;47.804;12.116;2023-02-22T07:35:45;5.00;99.90
25280;DHT22;13225;47.804;12.116;2023-02-22T07:38:15;5.00;99.90
25280;DHT22;13225;47.804;12.116;2023-02-22T07:40:41;5.10;99.90
25280;DHT22;13225;47.804;12.116;2023-02-22T07:43:22;5.10;99.90
25280;DHT22;13225;47.804;12.116;2023-02-22T07:45:49;5.20;99.90
25280;DHT22;13225;47.804;12.116;2023-02-22T07:48:16;5.40;99.90
25280;DHT22;13225;47.804;12.116;2023-02-22T07:50:42;5.50;99.90
25280;DHT22;13225;47.804;12.116;2023-02-22T07:53:15;5.60;99.90
25280;DHT22;13225;47.804;12.116;2023-02-22T07:55:43;5.70;99.90
25280;DHT22;13225;47.804;12.116;2023-02-22T07:58:12;5.80;99.90
25280;DHT22;13225;47.804;12.116;2023-02-22T08:00:40;5.90;99.90
25280;DHT22;13225;47.804;12.116;2023-02-22T08:03:08;6.00;99.90
25280;DHT22;13225;47.804;12.116;2023-02-22T08:05:36;6.10;99.90
25280;DHT22;13225;47.804;12.116;2023-02-22T08:08:02;6.10;99.90
25280;DHT22;13225;47.804;12.116;2023-02-22T08:10:28;6.20;99.90
25280;DHT22;13225;47.804;12.116;2023-02-22T08:12:55;6.30;99.90
25280;DHT22;13225;47.804;12.116;2023-02-22T08:15:30;6.30;99.90
25280;DHT22;13225;47.804;12.116;2023-02-22T08:17:57;6.40;99.90
25280;DHT22;13225;47.804;12.116;2023-02-22T08:20:24;6.30;99.90
25280;DHT22;13225;47.804;12.116;2023-02-22T08:22:50;6.40;99.90
25280;DHT22;13225;47.804;12.116;2023-02-22T08:25:20;6.50;99.90
25280;DHT22;13225;47.804;12.116;2023-02-22T08:27:46;6.60;99.90
25280;DHT22;13225;47.804;12.116;2023-02-22T08:30:18;6.60;99.90
25280;DHT22;13225;47.804;12.116;2023-02-22T08:32:48;6.70;99.90
25280;DHT22;13225;47.804;12.116;2023-02-22T08:35:17;6.80;99.90
25280;DHT22;13225;47.804;12.116;2023-02-22T08:37:44;6.90;99.90
25280;DHT22;13225;47.804;12.116;2023-02-22T08:40:11;6.90;99.90
25280;DHT22;13225;47.804;12.116;2023-02-22T08:42:37;7.00;99.90
25280;DHT22;13225;47.804;12.116;2023-02-22T08:45:03;7.10;99.90
25280;DHT22;13225;47.804;12.116;2023-02-22T08:47:29;7.20;99.90
25280;DHT22;13225;47.804;12.116;2023-02-22T08:49:54;7.30;99.90
25280;DHT22;13225;47.804;12.116;2023-02-22T08:52:20;7.40;99.90
25280;DHT22;13225;47.804;12.116;2023-02-22T08:54:46;7.50;99.90
25280;DHT22;13225;47.804;12.116;2023-02-22T08:57:12;7.50;99.90
25280;DHT22;13225;47.804;12.116;2023-02-22T08:59:37;7.60;99.90
25280;DHT22;13225;47.804;12.116;2023-02-22T09:02:03;7.70;99.90
25280;DHT22;13225;47.804;12.116;2023-02-22T09:04:29;7.70;99.90
25280;DHT22;13225;47.804;12.116;2023-02-22T09:06:55;7.80;99.90
25280;DHT22;13225;47.804;12.116;2023-02-22T09:09:20;7.90;99.90
25280;DHT22;13225;47.804;12.116;2023-02-22T09:11:47;8.00;99.90
25280;DHT22;13225;47.804;12.116;2023-02-22T09:14:13;8.00;99.90
25280;DHT22;13225;47.804;12.116;2023-02-22T09:16:39;8.10;99.90
25280;DHT22;13225;47.804;12.116;2023-02-22T09:19:05;8.20;99.90
25280;DHT22;13225;47.804;12.116;2023-02-22T09:21:30;8.40;99.90
25280;DHT22;13225;47.804;12.116;2023-02-22T09:23:56;8.50;99.90
25280;DHT22;13225;47.804;12.116;2023-02-22T09:26:22;8.50;99.90
25280;DHT22;13225;47.804;12.116;2023-02-22T09:28:49;8.60;99.90
25280;DHT22;13225;47.804;12.116;2023-02-22T09:31:14;8.80;99.90
25280;DHT22;13225;47.804;12.116;2023-02-22T09:33:42;8.90;99.90
25280;DHT22;13225;47.804;12.116;2023-02-22T09:36:09;9.10;99.90
25280;DHT22;13225;47.804;12.116;2023-02-22T09:38:35;9.20;99.90
25280;DHT22;13225;47.804;12.116;2023-02-22T09:41:15;9.30;99.90
25280;DHT22;13225;47.804;12.116;2023-02-22T09:43:48;9.30;99.90
25280;DHT22;13225;47.804;12.116;2023-02-22T09:46:38;9.50;99.90
25280;DHT22;13225;47.804;12.116;2023-02-22T09:54:23;9.60;99.90
25280;DHT22;13225;47.804;12.116;2023-02-22T09:56:54;9.70;99.90
25280;DHT22;13225;47.804;12.116;2023-02-22T09:59:29;9.80;99.90
25280;DHT22;13225;47.804;12.116;2023-02-22T10:02:18;9.90;99.90
25280;DHT22;13225;47.804;12.116;2023-02-22T10:05:14;10.00;99.90
25280;DHT22;13225;47.804;12.116;2023-02-22T10:07:57;10.20;99.90
25280;DHT22;13225;47.804;12.116;2023-02-22T10:10:27;10.30;99.90
25280;DHT22;13225;47.804;12.116;2023-02-22T10:24:02;10.60;99.90
25280;DHT22;13225;47.804;12.116;2023-02-22T10:26:35;10.80;99.90
25280;DHT22;13225;47.804;12.116;2023-02-22T10:29:04;10.90;99.90
25280;DHT22;13225;47.804;12.116;2023-02-22T10:31:34;11.00;99.90
25280;DHT22;13225;47.804;12.116;2023-02-22T10:34:20;11.20;99.90
25280;DHT22;13225;47.804;12.116;2023-02-22T10:36:52;11.30;99.90
25280;DHT22;13225;47.804;12.116;2023-02-22T10:39:37;11.30;99.90
25280;DHT22;13225;47.804;12.116;2023-02-22T10:42:06;11.40;99.80
25280;DHT22;13225;47.804;12.116;2023-02-22T10:44:36;11.50;99.00
25280;DHT22;13225;47.804;12.116;2023-02-22T10:47:13;11.70;99.50
25280;DHT22;13225;47.804;12.116;2023-02-22T10:49:46;11.70;99.90
25280;DHT22;13225;47.804;12.116;2023-02-22T10:52:23;11.60;99.90
25280;DHT22;13225;47.804;12.116;2023-02-22T10:54:51;11.70;99.90
25280;DHT22;13225;47.804;12.116;2023-02-22T10:57:28;11.80;99.90
25280;DHT22;13225;47.804;12.116;2023-02-22T10:59:54;12.10;99.90
25280;DHT22;13225;47.804;12.116;2023-02-22T11:02:34;12.30;99.90
25280;DHT22;13225;47.804;12.116;2023-02-22T11:05:02;12.40;99.90
25280;DHT22;13225;47.804;12.116;2023-02-22T11:07:33;12.50;99.90
25280;DHT22;13225;47.804;12.116;2023-02-22T11:10:05;12.60;99.90
25280;DHT22;13225;47.804;12.116;2023-02-22T11:12:41;12.60;99.90
25280;DHT22;13225;47.804;12.116;2023-02-22T11:17:42;12.70;99.90
25280;DHT22;13225;47.804;12.116;2023-02-22T11:20:27;12.80;99.90
25280;DHT22;13225;47.804;12.116;2023-02-22T11:22:56;12.80;99.90
25280;DHT22;13225;47.804;12.116;2023-02-22T11:25:39;13.00;99.90
25280;DHT22;13225;47.804;12.116;2023-02-22T11:28:21;13.10;99.90
25280;DHT22;13225;47.804;12.116;2023-02-22T11:30:56;13.10;99.90
25280;DHT22;13225;47.804;12.116;2023-02-22T11:33:24;13.20;99.90
25280;DHT22;13225;47.804;12.116;2023-02-22T11:35:56;13.40;99.90
25280;DHT22;13225;47.804;12.116;2023-02-22T11:38:26;13.60;99.90
25280;DHT22;13225;47.804;12.116;2023-02-22T11:41:13;13.70;99.80
25280;DHT22;13225;47.804;12.116;2023-02-22T11:43:39;13.90;99.60
25280;DHT22;13225;47.804;12.116;2023-02-22T11:46:12;14.20;99.20
25280;DHT22;13225;47.804;12.116;2023-02-22T11:48:41;14.30;99.30
25280;DHT22;13225;47.804;12.116;2023-02-22T11:56:41;14.70;99.80
25280;DHT22;13225;47.804;12.116;2023-02-22T12:01:57;15.00;98.70
25280;DHT22;13225;47.804;12.116;2023-02-22T12:04:54;14.90;99.00
25280;DHT22;13225;47.804;12.116;2023-02-22T12:12:53;15.30;98.50
25280;DHT22;13225;47.804;12.116;2023-02-22T12:15:41;15.30;99.10
25280;DHT22;13225;47.804;12.116;2023-02-22T12:21:14;15.20;97.60
25280;DHT22;13225;47.804;12.116;2023-02-22T12:23:42;15.20;97.00
25280;DHT22;13225;47.804;12.116;2023-02-22T12:36:52;16.60;96.00
25280;DHT22;13225;47.804;12.116;2023-02-22T12:39:39;17.30;94.30
25280;DHT22;13225;47.804;12.116;2023-02-22T12:42:16;17.00;94.00
25280;DHT22;13225;47.804;12.116;2023-02-22T12:44:46;17.40;93.60
25280;DHT22;13225;47.804;12.116;2023-02-22T12:47:22;18.40;92.80
25280;DHT22;13225;47.804;12.116;2023-02-22T12:49:57;18.60;91.40
25280;DHT22;13225;47.804;12.116;2023-02-22T12:55:17;19.30;89.80
25280;DHT22;13225;47.804;12.116;2023-02-22T13:00:42;19.70;87.30
25280;DHT22;13225;47.804;12.116;2023-02-22T13:08:47;19.40;87.70
25280;DHT22;13225;47.804;12.116;2023-02-22T13:19:41;20.00;81.80
25280;DHT22;13225;47.804;12.116;2023-02-22T13:27:29;20.40;78.50
25280;DHT22;13225;47.804;12.116;2023-02-22T13:29:59;20.40;76.50
25280;DHT22;13225;47.804;12.116;2023-02-22T13:35:22;19.50;75.10
25280;DHT22;13225;47.804;12.116;2023-02-22T13:38:22;18.20;78.30
25280;DHT22;13225;47.804;12.116;2023-02-22T13:46:27;17.10;80.50
25280;DHT22;13225;47.804;12.116;2023-02-22T13:49:13;16.80;81.30
25280;DHT22;13225;47.804;12.116;2023-02-22T13:51:54;16.50;83.40
25280;DHT22;13225;47.804;12.116;2023-02-22T13:57:17;16.60;82.30
25280;DHT22;13225;47.804;12.116;2023-02-22T13:59:43;16.70;83.40
25280;DHT22;13225;47.804;12.116;2023-02-22T14:02:32;16.80;81.90
25280;DHT22;13225;47.804;12.116;2023-02-22T14:08:07;16.50;80.60
25280;DHT22;13225;47.804;12.116;2023-02-22T14:11:00;16.90;80.20
25280;DHT22;13225;47.804;12.116;2023-02-22T14:13:27;17.00;81.20
25280;DHT22;13225;47.804;12.116;2023-02-22T14:18:30;17.30;80.80
25280;DHT22;13225;47.804;12.116;2023-02-22T14:23:42;18.40;75.40
25280;DHT22;13225;47.804;12.116;2023-02-22T14:26:29;18.90;75.20
25280;DHT22;13225;47.804;12.116;2023-02-22T14:29:16;18.60;74.10
25280;DHT22;13225;47.804;12.116;2023-02-22T14:34:19;19.20;74.90
25280;DHT22;13225;47.804;12.116;2023-02-22T14:37:08;19.30;73.70
25280;DHT22;13225;47.804;12.116;2023-02-22T14:47:56;19.50;72.20
25280;DHT22;13225;47.804;12.116;2023-02-22T14:50:58;19.50;74.30
25280;DHT22;13225;47.804;12.116;2023-02-22T14:53:39;19.70;72.40
25280;DHT22;13225;47.804;12.116;2023-02-22T14:56:08;20.10;70.90
25280;DHT22;13225;47.804;12.116;2023-02-22T14:58:41;19.80;72.10
25280;DHT22;13225;47.804;12.116;2023-02-22T15:01:30;19.10;70.70
25280;DHT22;13225;47.804;12.116;2023-02-22T15:04:15;18.90;71.90
25280;DHT22;13225;47.804;12.116;2023-02-22T15:06:40;19.00;70.40
25280;DHT22;13225;47.804;12.116;2023-02-22T15:09:24;18.50;71.10
25280;DHT22;13225;47.804;12.116;2023-02-22T15:12:12;18.30;71.90
25280;DHT22;13225;47.804;12.116;2023-02-22T15:14:40;17.60;71.50
25280;DHT22;13225;47.804;12.116;2023-02-22T15:17:17;17.00;75.00
25280;DHT22;13225;47.804;12.116;2023-02-22T15:19:45;16.30;75.80
25280;DHT22;13225;47.804;12.116;2023-02-22T15:22:22;15.80;78.00
25280;DHT22;13225;47.804;12.116;2023-02-22T15:25:08;15.50;79.00
25280;DHT22;13225;47.804;12.116;2023-02-22T15:27:35;15.20;81.00
25280;DHT22;13225;47.804;12.116;2023-02-22T15:30:29;14.90;83.10
25280;DHT22;13225;47.804;12.116;2023-02-22T15:33:02;14.60;84.00
25280;DHT22;13225;47.804;12.116;2023-02-22T15:35:34;14.50;84.00
25280;DHT22;13225;47.804;12.116;2023-02-22T15:40:35;14.10;87.90
25280;DHT22;13225;47.804;12.116;2023-02-22T15:43:04;13.80;89.60
25280;DHT22;13225;47.804;12.116;2023-02-22T15:45:33;13.60;90.80
25280;DHT22;13225;47.804;12.116;2023-02-22T15:47:59;13.40;91.00
25280;DHT22;13225;47.804;12.116;2023-02-22T15:50:28;13.30;91.50
25280;DHT22;13225;47.804;12.116;2023-02-22T15:53:02;13.20;91.20
25280;DHT22;13225;47.804;12.116;2023-02-22T16:00:39;12.90;92.70
25280;DHT22;13225;47.804;12.116;2023-02-22T16:03:06;12.70;93.20
25280;DHT22;13225;47.804;12.116;2023-02-22T16:05:43;12.50;94.40
25280;DHT22;13225;47.804;12.116;2023-02-22T16:08:14;12.30;96.20
25280;DHT22;13225;47.804;12.116;2023-02-22T16:10:48;12.20;95.50
25280;DHT22;13225;47.804;12.116;2023-02-22T16:13:19;12.10;96.30
25280;DHT22;13225;47.804;12.116;2023-02-22T16:15:57;11.90;96.80
25280;DHT22;13225;47.804;12.116;2023-02-22T16:18:29;11.70;97.90
25280;DHT22;13225;47.804;12.116;2023-02-22T16:23:31;11.20;99.90
25280;DHT22;13225;47.804;12.116;2023-02-22T16:31:25;10.80;99.90
25280;DHT22;13225;47.804;12.116;2023-02-22T16:33:51;10.60;99.90
25280;DHT22;13225;47.804;12.116;2023-02-22T16:36:19;10.40;99.90
25280;DHT22;13225;47.804;12.116;2023-02-22T16:38:46;10.20;99.90
25280;DHT22;13225;47.804;12.116;2023-02-22T16:41:14;10.00;99.90
25280;DHT22;13225;47.804;12.116;2023-02-22T16:43:48;9.90;99.90
25280;DHT22;13225;47.804;12.116;2023-02-22T16:46:16;9.70;99.90
25280;DHT22;13225;47.804;12.116;2023-02-22T16:48:43;9.60;99.90
25280;DHT22;13225;47.804;12.116;2023-02-22T16:51:27;9.40;99.90
25280;DHT22;13225;47.804;12.116;2023-02-22T16:53:54;9.30;99.90
25280;DHT22;13225;47.804;12.116;2023-02-22T16:56:26;9.30;99.90
25280;DHT22;13225;47.804;12.116;2023-02-22T16:58:52;9.30;99.90
25280;DHT22;13225;47.804;12.116;2023-02-22T17:01:19;9.30;99.90
25280;DHT22;13225;47.804;12.116;2023-02-22T17:03:45;9.30;99.90
25280;DHT22;13225;47.804;12.116;2023-02-22T17:06:11;9.30;99.90
25280;DHT22;13225;47.804;12.116;2023-02-22T17:08:39;9.20;99.90
25280;DHT22;13225;47.804;12.116;2023-02-22T17:11:06;9.10;99.90
25280;DHT22;13225;47.804;12.116;2023-02-22T17:13:32;9.00;99.90
25280;DHT22;13225;47.804;12.116;2023-02-22T17:16:00;9.00;99.90
25280;DHT22;13225;47.804;12.116;2023-02-22T17:18:27;8.90;99.90
25280;DHT22;13225;47.804;12.116;2023-02-22T17:21:01;8.90;99.90
25280;DHT22;13225;47.804;12.116;2023-02-22T17:23:27;8.80;99.90
25280;DHT22;13225;47.804;12.116;2023-02-22T17:25:59;8.70;99.90
25280;DHT22;13225;47.804;12.116;2023-02-22T17:28:26;8.70;99.90
25280;DHT22;13225;47.804;12.116;2023-02-22T17:30:54;8.60;99.90
25280;DHT22;13225;47.804;12.116;2023-02-22T17:33:22;8.60;99.90
25280;DHT22;13225;47.804;12.116;2023-02-22T17:35:51;8.60;99.90
25280;DHT22;13225;47.804;12.116;2023-02-22T17:38:17;8.50;99.90
25280;DHT22;13225;47.804;12.116;2023-02-22T17:40:45;8.60;99.90
25280;DHT22;13225;47.804;12.116;2023-02-22T17:43:13;8.50;99.90
25280;DHT22;13225;47.804;12.116;2023-02-22T17:45:39;8.50;99.90
25280;DHT22;13225;47.804;12.116;2023-02-22T17:48:08;8.50;99.90
25280;DHT22;13225;47.804;12.116;2023-02-22T17:50:39;8.40;99.90
25280;DHT22;13225;47.804;12.116;2023-02-22T17:53:06;8.40;99.90
25280;DHT22;13225;47.804;12.116;2023-02-22T17:55:32;8.50;99.90
25280;DHT22;13225;47.804;12.116;2023-02-22T17:57:59;8.50;99.90
25280;DHT22;13225;47.804;12.116;2023-02-22T18:00:35;8.50;99.90
25280;DHT22;13225;47.804;12.116;2023-02-22T18:03:10;8.50;99.90
25280;DHT22;13225;47.804;12.116;2023-02-22T18:05:45;8.50;99.90
25280;DHT22;13225;47.804;12.116;2023-02-22T18:08:12;8.40;99.90
25280;DHT22;13225;47.804;12.116;2023-02-22T18:10:41;8.40;99.90